createdAt,value
2018-12-22T00:02:25.107Z,99088.77
2018-12-22T00:04:57.201Z,99087.61
2018-12-22T00:07:29.602Z,99090.70
2018-12-22T00:10:02.012Z,99093.83
2018-12-22T00:12:34.372Z,99097.03
2018-12-22T00:15:08.558Z,99104.17
2018-12-22T00:17:40.805Z,99106.75
2018-12-22T00:20:13.234Z,99101.29
2018-12-22T00:22:45.290Z,99086.13
2018-12-22T00:25:17.483Z,99100.72
2018-12-22T00:27:49.731Z,99097.39
2018-12-22T00:30:24.478Z,99101.53
2018-12-22T00:32:56.796Z,99114.60
2018-12-22T00:35:26.820Z,99104.63
2018-12-22T00:37:56.901Z,99127.16
2018-12-22T00:40:27.223Z,99117.86
2018-12-22T00:43:00.140Z,99138.11
2018-12-22T00:45:32.199Z,99140.86
2018-12-22T00:48:02.677Z,99146.00
2018-12-22T00:50:37.393Z,99151.45
2018-12-22T00:53:09.871Z,99157.44
2018-12-22T00:55:42.295Z,99157.75
2018-12-22T00:58:14.596Z,99155.78
2018-12-22T01:00:46.748Z,99163.09
2018-12-22T01:03:19.273Z,99166.29
2018-12-22T01:05:51.534Z,99162.83
2018-12-22T01:08:23.802Z,99168.30
2018-12-22T01:10:53.851Z,99172.75
2018-12-22T01:14:27.334Z,99178.89
2018-12-22T01:16:59.553Z,99181.34
2018-12-22T01:19:29.926Z,99177.33
2018-12-22T01:22:02.355Z,99155.17
2018-12-22T01:24:36.632Z,99185.34
2018-12-22T01:27:08.229Z,99154.20
2018-12-22T01:29:40.324Z,99183.05
2018-12-22T01:32:14.810Z,99190.45
2018-12-22T01:34:46.539Z,99192.94
2018-12-22T01:37:21.060Z,99191.65
2018-12-22T01:39:52.971Z,99198.23
2018-12-22T01:42:23.224Z,99187.48
2018-12-22T01:44:56.579Z,99197.91
2018-12-22T01:47:28.932Z,99210.47
2018-12-22T01:50:01.177Z,99202.16
2018-12-22T01:52:33.548Z,99210.19
2018-12-22T01:55:06.622Z,99207.55
2018-12-22T01:57:38.408Z,99226.61
2018-12-22T02:00:10.915Z,99223.27
2018-12-22T02:02:42.790Z,99222.75
2018-12-22T02:05:12.932Z,99223.38
2018-12-22T02:07:44.867Z,99226.80
2018-12-22T02:10:17.146Z,99226.16
2018-12-22T02:12:49.205Z,99230.48
2018-12-22T02:15:21.708Z,99242.91
2018-12-22T02:17:56.581Z,99255.18
2018-12-22T02:20:28.877Z,99260.21
2018-12-22T02:23:01.239Z,99270.58
2018-12-22T02:25:33.405Z,99272.28
2018-12-22T02:28:05.505Z,99254.70
2018-12-22T02:31:19.496Z,99264.92
2018-12-22T02:33:51.483Z,99272.14
2018-12-22T02:36:23.568Z,99296.94
2018-12-22T02:38:55.955Z,99304.50
2018-12-22T02:41:28.392Z,99296.64
2018-12-22T02:44:00.527Z,99301.42
2018-12-22T02:46:32.676Z,99299.28
2018-12-22T02:49:04.195Z,99303.94
2018-12-22T02:51:36.373Z,99305.12
2018-12-22T02:54:08.506Z,99287.83
2018-12-22T02:56:41.008Z,99295.74
2018-12-22T02:59:13.155Z,99287.08
2018-12-22T03:01:45.273Z,99294.42
2018-12-22T03:04:15.551Z,99294.17
2018-12-22T03:06:45.795Z,99294.70
2018-12-22T03:09:18.144Z,99297.36
2018-12-22T03:11:48.626Z,99308.73
2018-12-22T03:14:21.043Z,99315.95
2018-12-22T03:16:53.308Z,99301.52
2018-12-22T03:19:25.403Z,99315.62
2018-12-22T03:21:57.654Z,99316.84
2018-12-22T03:24:27.668Z,99315.28
2018-12-22T03:27:00.083Z,99323.09
2018-12-22T03:29:30.144Z,99318.38
2018-12-22T03:32:04.822Z,99314.28
2018-12-22T03:34:37.088Z,99309.23
2018-12-22T03:37:09.393Z,99301.67
2018-12-22T03:39:41.934Z,99306.94
2018-12-22T03:42:14.389Z,99296.49
2018-12-22T03:44:46.566Z,99294.89
2018-12-22T03:47:36.442Z,99307.28
2018-12-22T03:50:11.248Z,99302.00
2018-12-22T03:52:43.685Z,99304.64
2018-12-22T03:55:15.807Z,99290.47
2018-12-22T03:57:48.179Z,99314.84
2018-12-22T04:00:20.469Z,99312.73
2018-12-22T04:02:53.004Z,99314.94
2018-12-22T04:05:25.189Z,99314.03
2018-12-22T04:07:57.419Z,99323.45
2018-12-22T04:10:29.608Z,99316.68
2018-12-22T04:13:01.876Z,99317.33
2018-12-22T04:15:33.985Z,99322.13
2018-12-22T04:18:05.867Z,99317.55
2018-12-22T04:20:37.952Z,99319.14
2018-12-22T04:23:10.334Z,99310.56
2018-12-22T04:25:42.578Z,99314.48
2018-12-22T04:28:13.051Z,99322.37
2018-12-22T04:30:43.417Z,99318.56
2018-12-22T04:33:15.689Z,99313.20
2018-12-22T04:35:47.854Z,99324.44
2018-12-22T04:38:21.230Z,99331.36
2018-12-22T04:40:53.552Z,99329.34
2018-12-22T04:43:25.684Z,99322.76
2018-12-22T04:46:00.234Z,99325.66
2018-12-22T04:48:31.985Z,99325.05
2018-12-22T04:51:03.964Z,99310.52
2018-12-22T04:53:36.136Z,99314.98
2018-12-22T04:56:08.111Z,99320.39
2018-12-22T04:58:40.336Z,99321.81
2018-12-22T05:01:14.989Z,99316.27
2018-12-22T05:06:38.480Z,99318.42
2018-12-22T05:09:10.834Z,99313.69
2018-12-22T05:11:43.241Z,99315.86
2018-12-22T05:14:15.294Z,99320.66
2018-12-22T05:16:47.587Z,99325.14
2018-12-22T05:19:19.696Z,99330.31
2018-12-22T05:21:51.944Z,99327.77
2018-12-22T05:24:24.203Z,99328.05
2018-12-22T05:26:55.828Z,99331.91
2018-12-22T05:29:30.324Z,99331.02
2018-12-22T05:32:02.214Z,99319.50
2018-12-22T05:34:34.631Z,99335.06
2018-12-22T05:37:06.795Z,99327.73
2018-12-22T05:39:39.045Z,99332.59
2018-12-22T05:42:09.806Z,99330.19
2018-12-22T05:44:41.733Z,99326.61
2018-12-22T05:47:13.899Z,99328.45
2018-12-22T05:49:46.052Z,99326.38
2018-12-22T05:52:18.431Z,99319.84
2018-12-22T05:54:50.438Z,99325.45
2018-12-22T05:57:22.749Z,99317.68
2018-12-22T06:00:00.386Z,99322.30
2018-12-22T06:02:29.426Z,99320.45
2018-12-22T06:05:01.519Z,99321.69
2018-12-22T06:07:33.763Z,99318.81
2018-12-22T06:10:06.211Z,99318.05
2018-12-22T06:12:37.888Z,99318.39
2018-12-22T06:15:10.388Z,99317.44
2018-12-22T06:17:42.363Z,99317.50
2018-12-22T06:20:14.594Z,99324.52
2018-12-22T06:22:44.772Z,99319.66
2018-12-22T06:25:16.990Z,99320.61
2018-12-22T06:27:49.361Z,99319.38
2018-12-22T06:30:21.798Z,99320.22
2018-12-22T06:32:52.046Z,99326.34
2018-12-22T06:35:22.161Z,99318.80
2018-12-22T06:37:54.629Z,99320.78
2018-12-22T06:40:26.505Z,99321.91
2018-12-22T06:42:56.788Z,99319.41
2018-12-22T06:45:28.916Z,99317.81
2018-12-22T06:48:01.054Z,99315.09
2018-12-22T06:50:33.362Z,99318.71
2018-12-22T06:53:05.860Z,99306.23
2018-12-22T06:55:38.489Z,99296.91
2018-12-22T06:58:10.172Z,99306.61
2018-12-22T07:00:42.404Z,99314.19
2018-12-22T07:03:14.761Z,99311.41
2018-12-22T07:05:46.958Z,99313.63
2018-12-22T07:08:17.416Z,99311.77
2018-12-22T07:10:48.968Z,99317.05
2018-12-22T07:13:21.225Z,99312.89
2018-12-22T07:15:53.476Z,99310.68
2018-12-22T07:18:25.408Z,99306.30
2018-12-22T07:20:55.617Z,99307.70
2018-12-22T07:23:28.030Z,99311.03
2018-12-22T07:26:00.955Z,99317.42
2018-12-22T07:28:31.109Z,99304.16
2018-12-22T07:31:05.413Z,99297.34
2018-12-22T07:33:37.773Z,99293.81
2018-12-22T07:36:10.238Z,99286.94
2018-12-22T07:38:45.998Z,99292.98
2018-12-22T07:41:17.503Z,99295.28
2018-12-22T07:43:49.074Z,99298.13
2018-12-22T07:46:21.290Z,99300.97
2018-12-22T07:48:53.398Z,99303.19
2018-12-22T07:51:25.544Z,99307.55
2018-12-22T07:54:00.104Z,99311.47
2018-12-22T07:56:32.142Z,99310.06
2018-12-22T07:59:04.544Z,99308.59
2018-12-22T08:01:36.550Z,99310.58
2018-12-22T08:04:08.964Z,99309.27
2018-12-22T08:06:41.129Z,99306.57
2018-12-22T08:09:13.610Z,99316.27
2018-12-22T08:11:43.873Z,99307.09
2018-12-22T08:14:14.160Z,99321.16
2018-12-22T08:16:45.753Z,99305.78
2018-12-22T08:19:15.925Z,99319.51
2018-12-22T08:21:48.073Z,99307.59
2018-12-22T08:24:20.469Z,99316.43
2018-12-22T08:26:52.664Z,99322.81
2018-12-22T08:29:24.893Z,99324.17
2018-12-22T08:31:59.400Z,99325.96
2018-12-22T08:34:31.375Z,99324.44
2018-12-22T08:37:05.817Z,99328.43
2018-12-22T08:39:37.319Z,99333.83
2018-12-22T08:42:09.696Z,99333.56
2018-12-22T08:44:42.892Z,99321.00
2018-12-22T08:47:14.640Z,99324.78
2018-12-22T08:49:46.620Z,99323.97
2018-12-22T08:52:16.784Z,99318.84
2018-12-22T08:54:49.121Z,99331.44
2018-12-22T08:57:21.318Z,99332.58
2018-12-22T08:59:54.271Z,99347.47
2018-12-22T09:02:26.805Z,99339.30
2018-12-22T09:04:59.320Z,99355.58
2018-12-22T09:07:29.473Z,99347.06
2018-12-22T09:10:01.710Z,99351.41
2018-12-22T09:12:33.644Z,99360.97
2018-12-22T09:15:09.199Z,99364.00
2018-12-22T09:17:41.751Z,99363.61
2018-12-22T09:20:13.705Z,99363.02
2018-12-22T09:22:46.116Z,99369.84
2018-12-22T09:25:18.300Z,99373.33
2018-12-22T09:27:50.467Z,99375.84
2018-12-22T09:30:20.449Z,99372.48
2018-12-22T09:32:50.967Z,99374.27
2018-12-22T09:35:23.360Z,99365.05
2018-12-22T09:37:55.456Z,99369.01
2018-12-22T09:40:27.525Z,99383.41
2018-12-22T09:42:59.780Z,99378.61
2018-12-22T09:45:32.844Z,99379.64
2018-12-22T09:48:03.231Z,99391.80
2018-12-22T09:50:35.310Z,99403.11
2018-12-22T09:53:07.597Z,99426.30
2018-12-22T09:55:39.802Z,99432.39
2018-12-22T09:58:11.797Z,99447.02
2018-12-22T10:00:43.925Z,99452.14
2018-12-22T10:03:15.766Z,99450.48
2018-12-22T10:05:47.330Z,99455.28
2018-12-22T10:08:19.892Z,99446.46
2018-12-22T10:13:42.091Z,99468.69
2018-12-22T10:16:12.556Z,99462.61
2018-12-22T10:18:47.192Z,99480.89
2018-12-22T10:21:18.846Z,99484.36
2018-12-22T10:23:51.270Z,99489.38
2018-12-22T10:26:23.315Z,99499.77
2018-12-22T10:28:55.809Z,99498.83
2018-12-22T10:31:27.788Z,99500.95
2018-12-22T10:34:00.006Z,99512.69
2018-12-22T10:36:32.146Z,99510.87
2018-12-22T10:39:06.113Z,99521.37
2018-12-22T10:41:37.727Z,99539.20
2018-12-22T10:44:09.428Z,99552.80
2018-12-22T10:46:42.397Z,99562.10
2018-12-22T10:49:14.384Z,99553.01
2018-12-22T10:51:47.001Z,99538.55
2018-12-22T10:54:21.155Z,99547.64
2018-12-22T10:56:53.469Z,99556.36
2018-12-22T10:59:25.594Z,99559.09
2018-12-22T11:01:57.851Z,99570.19
2018-12-22T11:04:29.524Z,99570.98
2018-12-22T11:06:59.852Z,99577.56
2018-12-22T11:09:32.041Z,99574.67
2018-12-22T11:12:04.461Z,99578.76
2018-12-22T11:14:36.395Z,99594.75
2018-12-22T11:17:09.025Z,99597.80
2018-12-22T11:19:42.679Z,99595.52
2018-12-22T11:22:15.073Z,99593.48
2018-12-22T11:24:47.262Z,99604.92
2018-12-22T11:27:19.624Z,99610.19
2018-12-22T11:29:51.688Z,99630.01
2018-12-22T11:32:23.845Z,99638.23
2018-12-22T11:34:55.828Z,99646.12
2018-12-22T11:37:27.882Z,99654.23
2018-12-22T11:40:00.304Z,99660.42
2018-12-22T11:42:32.350Z,99658.02
2018-12-22T11:45:04.784Z,99667.56
2018-12-22T11:47:43.761Z,99671.23
2018-12-22T11:50:20.130Z,99668.03
2018-12-22T11:52:52.041Z,99683.29
2018-12-22T11:55:26.326Z,99692.09
2018-12-22T11:57:57.971Z,99694.45
2018-12-22T12:00:30.311Z,99702.55
2018-12-22T12:03:02.324Z,99703.71
2018-12-22T12:05:34.832Z,99712.17
2018-12-22T12:08:09.364Z,99717.91
2018-12-22T12:10:41.953Z,99725.05
2018-12-22T12:13:13.892Z,99738.64
2018-12-22T12:15:50.470Z,99742.23
2018-12-22T12:18:28.023Z,99748.64
2018-12-22T12:21:08.530Z,99756.86
2018-12-22T12:23:48.038Z,99771.69
2018-12-22T12:26:21.989Z,99768.67
2018-12-22T12:28:54.902Z,99781.67
2018-12-22T12:31:27.540Z,99784.02
2018-12-22T12:33:59.670Z,99789.84
2018-12-22T12:36:31.891Z,99798.98
2018-12-22T12:39:06.928Z,99806.85
2018-12-22T12:41:38.487Z,99818.53
2018-12-22T12:44:10.727Z,99820.58
2018-12-22T12:46:46.581Z,99820.20
2018-12-22T12:49:19.865Z,99832.69
2018-12-22T12:51:52.042Z,99838.32
2018-12-22T12:54:24.705Z,99831.27
2018-12-22T12:56:58.618Z,99840.27
2018-12-22T12:59:30.911Z,99841.19
2018-12-22T13:02:04.871Z,99853.28
2018-12-22T13:04:36.909Z,99850.16
2018-12-22T13:07:09.063Z,99859.84
2018-12-22T13:09:43.247Z,99867.28
2018-12-22T13:12:19.327Z,99865.67
2018-12-22T13:14:52.245Z,99871.11
2018-12-22T13:17:24.473Z,99877.32
2018-12-22T13:19:56.506Z,99883.31
2018-12-22T13:22:28.153Z,99892.11
2018-12-22T13:24:58.500Z,99899.06
2018-12-22T13:27:31.269Z,99906.20
2018-12-22T13:30:04.555Z,99905.03
2018-12-22T13:32:37.053Z,99921.31
2018-12-22T13:35:09.678Z,99926.23
2018-12-22T13:37:42.067Z,99927.37
2018-12-22T13:40:15.553Z,99933.28
2018-12-22T13:42:49.305Z,99948.33
2018-12-22T13:45:21.392Z,99955.99
2018-12-22T13:47:54.523Z,99966.67
2018-12-22T13:50:26.746Z,99968.69
2018-12-22T13:53:00.562Z,99970.78
2018-12-22T13:55:32.920Z,99982.25
2018-12-22T13:58:04.900Z,99980.58
2018-12-22T14:00:42.160Z,99987.35
2018-12-22T14:03:18.284Z,99991.02
2018-12-22T14:05:50.730Z,99985.94
2018-12-22T14:08:20.804Z,99994.80
2018-12-22T14:10:53.087Z,100006.98
2018-12-22T14:13:23.457Z,100003.04
2018-12-22T14:16:00.140Z,100010.34
2018-12-22T14:18:37.073Z,100013.47
2018-12-22T14:21:09.690Z,100008.28
2018-12-22T14:23:51.127Z,100012.86
2018-12-22T14:26:22.956Z,100009.02
2018-12-22T14:28:55.184Z,100015.01
2018-12-22T14:31:27.508Z,100020.79
2018-12-22T14:34:02.457Z,100029.30
2018-12-22T14:36:34.490Z,100031.11
2018-12-22T14:56:39.450Z,100060.91
2018-12-22T14:59:13.703Z,100065.27
2018-12-22T15:01:51.214Z,100065.84
2018-12-22T15:04:24.395Z,100074.11
2018-12-22T15:06:55.989Z,100076.27
2018-12-22T15:09:28.603Z,100080.36
2018-12-22T15:12:01.581Z,100079.61
2018-12-22T15:14:37.110Z,100075.36
2018-12-22T15:23:04.250Z,100092.18
2018-12-22T15:25:36.568Z,100085.42
2018-12-22T15:28:08.735Z,100090.30
2018-12-22T15:30:41.319Z,100091.89
2018-12-22T15:33:13.449Z,100099.45
2018-12-22T15:35:45.534Z,100101.91
2018-12-22T15:38:18.042Z,100107.16
2018-12-22T15:40:50.900Z,100100.77
2018-12-22T15:43:22.834Z,100102.94
2018-12-22T15:45:55.016Z,100093.56
2018-12-22T15:48:27.135Z,100103.09
2018-12-22T15:50:58.569Z,100100.59
2018-12-22T15:53:30.480Z,100105.96
2018-12-22T15:56:03.059Z,100100.50
2018-12-22T15:58:33.189Z,100103.66
2018-12-22T16:01:07.669Z,100103.66
2018-12-22T16:03:39.585Z,100105.03
2018-12-22T16:06:11.720Z,100102.08
2018-12-22T16:08:43.716Z,100103.61
2018-12-22T16:11:15.972Z,100108.08
2018-12-22T16:13:48.211Z,100106.98
2018-12-22T16:16:21.029Z,100104.31
2018-12-22T16:18:52.976Z,100108.03
2018-12-22T16:21:24.997Z,100109.88
2018-12-22T16:23:57.357Z,100102.86
2018-12-22T16:26:29.572Z,100101.14
2018-12-22T16:29:14.088Z,100102.73
2018-12-22T16:31:48.046Z,100110.81
2018-12-22T16:34:19.924Z,100118.41
2018-12-22T16:36:53.229Z,100122.54
2018-12-22T16:39:25.555Z,100125.61
2018-12-22T16:42:00.337Z,100122.13
2018-12-22T16:44:31.995Z,100127.64
2018-12-22T16:47:05.688Z,100126.82
2018-12-22T16:49:38.423Z,100129.06
2018-12-22T16:52:11.815Z,100131.34
2018-12-22T16:54:45.014Z,100132.90
2018-12-22T16:57:18.132Z,100134.14
2018-12-22T16:59:52.095Z,100136.03
2018-12-22T17:02:59.942Z,100135.64
2018-12-22T17:05:33.542Z,100139.40
2018-12-22T17:08:06.761Z,100138.08
2018-12-22T17:10:42.693Z,100144.44
2018-12-22T17:13:18.212Z,100152.95
2018-12-22T17:15:56.809Z,100154.66
2018-12-22T17:18:30.965Z,100151.81
2018-12-22T17:21:43.582Z,100154.33
2018-12-22T17:24:54.666Z,100155.37
2018-12-22T17:27:28.195Z,100166.11
2018-12-22T17:30:01.751Z,100181.14
2018-12-22T17:32:39.087Z,100182.00
2018-12-22T17:35:14.442Z,100181.67
2018-12-22T17:37:47.585Z,100179.27
2018-12-22T17:40:20.835Z,100182.26
2018-12-22T17:42:54.068Z,100187.33
2018-12-22T17:45:27.328Z,100182.95
2018-12-22T17:47:59.972Z,100184.16
2018-12-22T17:50:33.175Z,100182.95
2018-12-22T17:53:09.041Z,100190.52
2018-12-22T17:55:40.605Z,100197.27
2018-12-22T17:58:13.476Z,100194.28
2018-12-22T18:00:49.052Z,100190.33
2018-12-22T18:03:27.523Z,100184.16
2018-12-22T18:06:00.105Z,100201.06
2018-12-22T18:08:32.842Z,100196.98
2018-12-22T18:11:06.181Z,100214.72
2018-12-22T18:13:39.328Z,100212.84
2018-12-22T18:16:12.752Z,100199.36
2018-12-22T18:18:46.154Z,100201.09
2018-12-22T18:21:19.410Z,100195.41
2018-12-22T18:23:54.806Z,100192.63
2018-12-22T18:26:26.031Z,100195.89
2018-12-22T18:28:59.239Z,100197.88
2018-12-22T18:31:32.585Z,100197.09
2018-12-22T18:34:05.930Z,100188.73
2018-12-22T18:36:39.276Z,100196.16
2018-12-22T18:39:12.742Z,100209.89
2018-12-22T18:41:47.562Z,100208.94
2018-12-22T18:44:20.156Z,100208.47
2018-12-22T18:46:53.568Z,100204.52
2018-12-22T18:49:26.482Z,100202.28
2018-12-22T18:52:00.094Z,100209.78
2018-12-22T18:54:33.169Z,100207.05
2018-12-22T18:57:06.324Z,100203.37
2018-12-22T18:59:41.382Z,100205.38
2018-12-22T19:02:15.455Z,100215.62
2018-12-22T19:07:20.254Z,100231.59
2018-12-22T19:09:53.720Z,100228.57
2018-12-22T19:12:29.106Z,100228.05
2018-12-22T19:15:02.493Z,100220.56
2018-12-22T19:17:35.301Z,100205.11
2018-12-22T19:20:15.037Z,100223.25
2018-12-22T19:22:48.286Z,100226.00
2018-12-22T19:25:21.697Z,100224.44
2018-12-22T19:27:54.852Z,100231.27
2018-12-22T19:30:28.112Z,100231.16
2018-12-22T19:33:01.340Z,100221.25
2018-12-22T19:35:34.516Z,100236.91
2018-12-22T19:38:07.567Z,100235.84
2018-12-22T19:40:40.879Z,100237.45
2018-12-22T19:43:14.049Z,100243.91
2018-12-22T19:45:47.089Z,100241.52
2018-12-22T19:48:20.551Z,100243.96
2018-12-22T19:50:55.611Z,100245.91
2018-12-22T19:53:28.884Z,100238.23
2018-12-22T19:56:02.043Z,100243.73
2018-12-22T19:58:35.703Z,100228.41
2018-12-22T20:01:09.151Z,100245.80
2018-12-22T20:03:42.434Z,100245.00
2018-12-22T20:06:17.351Z,100249.91
2018-12-22T20:08:50.425Z,100245.62
2018-12-22T20:11:23.865Z,100255.42
2018-12-22T20:13:56.896Z,100249.89
2018-12-22T20:16:29.924Z,100260.02
2018-12-22T20:19:03.351Z,100259.67
2018-12-22T20:21:38.716Z,100257.57
2018-12-22T20:24:12.054Z,100264.05
2018-12-22T20:26:57.292Z,100256.95
2018-12-22T20:29:30.494Z,100252.76
2018-12-22T20:32:03.474Z,100261.95
2018-12-22T20:34:36.581Z,100270.42
2018-12-22T20:37:10.066Z,100274.18
2018-12-22T20:39:42.895Z,100272.13
2018-12-22T20:42:15.623Z,100267.02
2018-12-22T20:44:48.725Z,100277.80
2018-12-22T20:47:22.141Z,100287.41
2018-12-22T20:49:55.431Z,100284.09
2018-12-22T20:52:28.743Z,100288.09
2018-12-22T20:55:01.635Z,100296.45
2018-12-22T20:57:34.762Z,100296.34
2018-12-22T21:00:08.373Z,100299.61
2018-12-22T21:02:41.096Z,100297.45
2018-12-22T21:05:14.258Z,100303.40
2018-12-22T21:07:47.609Z,100312.38
2018-12-22T21:10:21.485Z,100310.77
2018-12-22T21:12:54.412Z,100308.72
2018-12-22T21:15:29.068Z,100304.77
2018-12-22T21:18:02.517Z,100304.02
2018-12-22T21:20:35.763Z,100300.46
2018-12-22T21:23:08.593Z,100303.73
2018-12-22T21:25:41.838Z,100317.53
2018-12-22T21:28:16.588Z,100301.91
2018-12-22T21:30:49.821Z,100311.30
2018-12-22T21:33:23.278Z,100305.81
2018-12-22T21:35:58.884Z,100320.93
2018-12-22T21:38:33.486Z,100320.69
2018-12-22T21:41:06.799Z,100324.99
2018-12-22T21:43:43.120Z,100338.72
2018-12-22T21:46:16.606Z,100336.48
2018-12-22T21:48:49.987Z,100340.78
2018-12-22T21:51:23.921Z,100343.47
2018-12-22T21:53:57.084Z,100346.37
2018-12-22T21:56:30.386Z,100357.21
2018-12-22T21:59:03.648Z,100348.25
2018-12-22T22:01:36.921Z,100354.58
2018-12-22T22:04:18.182Z,100342.77
2018-12-22T22:06:55.653Z,100351.80
2018-12-22T22:09:28.876Z,100361.02
2018-12-22T22:12:02.460Z,100368.70
2018-12-22T22:14:35.551Z,100366.14
2018-12-22T22:17:09.966Z,100370.02
2018-12-22T22:19:42.903Z,100360.45
2018-12-22T22:22:16.563Z,100358.17
2018-12-22T22:24:50.058Z,100368.87
2018-12-22T22:30:21.023Z,100370.33
2018-12-22T22:32:52.557Z,100374.92
2018-12-22T22:35:25.634Z,100360.92
2018-12-22T22:37:59.006Z,100357.06
2018-12-22T22:40:32.157Z,100366.91
2018-12-22T22:43:05.532Z,100365.55
2018-12-22T22:45:39.503Z,100376.13
2018-12-22T22:48:16.890Z,100397.05
2018-12-22T22:50:52.935Z,100389.80
2018-12-22T22:53:27.610Z,100406.80
2018-12-22T22:56:03.070Z,100394.37
2018-12-22T22:58:35.878Z,100402.63
2018-12-22T23:01:09.306Z,100412.31
2018-12-22T23:03:42.683Z,100417.86
2018-12-22T23:06:22.752Z,100411.19
2018-12-22T23:08:56.383Z,100417.24
2018-12-22T23:11:29.425Z,100426.58
2018-12-22T23:14:07.006Z,100425.33
2018-12-22T23:16:42.732Z,100424.63
2018-12-22T23:19:15.861Z,100423.92
2018-12-22T23:21:49.063Z,100426.16
2018-12-22T23:24:21.944Z,100431.39
2018-12-22T23:26:57.368Z,100444.60
2018-12-22T23:29:30.501Z,100444.42
2018-12-22T23:32:03.615Z,100424.48
2018-12-22T23:34:37.606Z,100440.61
2018-12-22T23:37:11.112Z,100449.26
2018-12-22T23:39:46.383Z,100462.33
2018-12-22T23:42:20.000Z,100449.16
2018-12-22T23:44:55.749Z,100461.55
2018-12-22T23:47:28.612Z,100461.50
2018-12-22T23:50:02.181Z,100468.13
2018-12-22T23:52:36.106Z,100475.28
2018-12-22T23:55:09.682Z,100476.42
2018-12-22T23:57:43.729Z,100480.55
